AirNav  
 
 655 users online  

F00 Jones Field Airport
Bonham, Texas, USA


FAA INFORMATION EFFECTIVE 09 NOVEMBER 2017

Location

FAA Identifier: F00
Lat/Long: 33-36-47.1300N / 096-10-45.5700W
33-36.785500N / 096-10.759500W
33.6130917 / -96.1793250
(estimated)
Elevation: 618.2 ft. / 188.4 m (surveyed)
Variation: 06E (1990)
From city: 2 miles N of BONHAM, TX
Time zone: UTC -6 (UTC -5 during Daylight Saving Time)
Zip code: 75418

Airport Operations

Airport use: Open to the public
Activation date: 11/1938
Control tower: no
ARTCC: FORT WORTH CENTER
FSS: FORT WORTH FLIGHT SERVICE STATION
NOTAMs facility: FTW (NOTAM-D service available)
Attendance: UNATNDD
FOR ARPT ATTENDANT CALL 903-583-7555 M-F 8:00-5:00. AFTER HOURS CALL BONHAM POLICE DEPT 903-583-2141.
Wind indicator: lighted
Segmented circle: yes
Lights: ACTVT MIRL RY 17/35; PAPI RYS 17 & 35 - CTAF.
Beacon: white-green (lighted land airport)
Operates sunset to sunrise.
Taxiway lights: EXIT SIGNS ONLY.

Airport Communications

CTAF/UNICOM: 122.8
WX AWOS-3PT: 118.05 (903-583-2082)
  • UNICOM UNMONITORED.
  • APCH/DEP SERVICE PROVIDED BY FORT WORTH ARTCC ON FREQ 127.6/254.3 (BLUE RIDGE/B RCAG).

Nearby radio navigation aids

VOR radial/distance  VOR name  Freq  Var
BYPr025/5.3BONHAM VORTAC114.6006E
URHr147/22.5TEXOMA VOR/DME114.3005E
PRXr270/36.8PARIS VOR/DME113.6007E

 
NDB name  Hdg/Dist  Freq  Var  ID
DENISON112/27.634106EDNI -.. -. ..
MELISA041/29.442103EVLY ...- .-.. -.--
CADDO MILLS360/34.531606EMII -- .. ..

Airport Services

Fuel available: 100LL
FUEL AVBL WITH CREDIT CARD.
Parking: tiedowns
Airframe service: MAJOR
FOR AIRFRAME REPAIRS CALL 903-640-0233 OR 903-583-5119.
Powerplant service: MAJOR
Bottled oxygen: NONE
Bulk oxygen: NONE

Runway Information

Runway 17/35

Dimensions: 4000 x 75 ft. / 1219 x 23 m
Surface: asphalt, in fair condition
Weight bearing capacity: 
Single wheel: 12.5
Runway edge lights: medium intensity
Runway edge markings: MARKINGS FADED.
RUNWAY 17  RUNWAY 35
Latitude: 33-37.115000N33-36.455750N
Longitude: 096-10.748000W096-10.770833W
Elevation: 617.9 ft.612.3 ft.
Gradient: 0.2%0.2%
Traffic pattern: leftleft
Runway heading: 176 magnetic, 182 true356 magnetic, 002 true
Markings: nonprecision, in fair conditionnonprecision, in poor condition
Visual slope indicator: 2-light PAPI on left (3.00 degrees glide path)2-light PAPI on left (3.00 degrees glide path)
Touchdown point: yes, no lightsyes, no lights
Obstructions: none44 ft. pline, 1300 ft. from runway, 25:1 slope to clear

Airport Ownership and Management from official FAA records

Ownership: Publicly-owned
Owner: CITY OF BONHAM
514 CHESTNUT
BONHAM, TX 75418
Phone 903-583-7555
Manager: LANCE CAPEHART
514 CHESTNUT
BONHAM, TX 75418
Phone 903-583-7555
DIRECTOR OF PUBLIC WORKS.

Airport Operational Statistics

Aircraft based on the field: 37
Single engine airplanes: 36
Helicopters: 1
    
Aircraft operations: avg 37/day *
75% local general aviation
25% transient general aviation
* for 12-month period ending 25 May 2016

Instrument Procedures

NOTE: All procedures below are presented as PDF files. If you need a reader for these files, you should download the free Adobe Reader.

NOT FOR NAVIGATION. Please procure official charts for flight.
FAA instrument procedures published for use between 9 November 2017 at 0901Z and 7 December 2017 at 0900Z.

 
IAPs - Instrument Approach Procedures
RNAV (GPS) RWY 17   download (207KB)
RNAV (GPS) RWY 35   download (191KB)
VOR/DME RWY 17   download (150KB)
NOTE: Special Take-Off Minimums/Departure Procedures apply   download (113KB)

Other nearby airports with instrument procedures:

KSWI - Sherman Municipal Airport (20 nm W)
KDUA - Durant Regional Airport - Eaker Field (22 nm NW)
2F7 - Commerce Municipal Airport (24 nm SE)
KGYI - North Texas Regional Airport/Perrin Field (25 nm W)
KGVT - Majors Airport (33 nm S)
 
Loc | Ops | Rwys | IFR | FBO | Links
Com | Nav | Svcs | Stats | Notes

Lake Texoma Jet Center
AirBoss

 
Area around F00 (Jones Field Airport)
 
Road maps at: MapQuest Bing Google
 
Aerial photo
WARNING: Photo may not be current or correct
Aerial photo of F00 (Jones Field Airport)
Do you have a better or more recent aerial photo of Jones Field Airport that you would like to share? If so, please send us your photo.

 
Sectional chart

 
Airport distance calculator
Flying to Jones Field Airport? Find the distance to fly.

From to F00

Sunrise and sunset
Times for 24-Nov-2017
 Local
(UTC-6)
 Zulu
(UTC)
Morning civil twilight06:3912:39
Sunrise07:0613:06
Sunset17:1723:17
Evening civil twilight17:4423:44

Current date and time
Zulu (UTC)  24-Nov-2017 13:18:18
Local (UTC-6)  24-Nov-2017 07:18:18
 
METAR
KDUA 
23nm NW 
241255Z AUTO 17003KT 10SM 03/00 A2993 RMK AO2
KGYI 
25nm W 
241255Z AUTO 17009KT 10SM CLR 07/00 A2993 RMK AO2 T00740000
KTKI 
33nm SW 
241253Z 16004KT 10SM CLR 04/01 A2995 RMK AO2 SLP152 T00440006
KGVT 
33nm S 
241250Z AUTO 00000KT 10SM CLR 07/01 A2998 RMK AO2
KPRX 
36nm E 
241256Z AUTO 14006KT 10SM CLR 03/00 A2997 RMK AO2 SLP169 T00280000
KSLR 
39nm SE 
241255Z AUTO 19005KT 10SM CLR 08/01 A3000 RMK AO2 T00760012
KHHW 
41nm NE 
241255Z AUTO 10003KT 10SM CLR 04/00 A2996 RMK AO2 T00351001
KF46 
43nm S 
241255Z AUTO 18007KT 10SM CLR 07/01 A2997 RMK AO2 T00680005
TAF
NOTAMs
Click for the latest NOTAMs
NOTAMs are issued by the DoD/FAA and will open in a separate window not controlled by AirNav.

 

 
 

FBO, Fuel Providers, and Aircraft Ground Support

  
 Business Name 
 
 Contact 
 
 Services / Description 
 
Fuel Prices
 
Comments
  
Jones Field 903-583-8623
no information available

If you are affiliated with Jones Field and would like to show here your services, contact info, web link, logo, and more, click here
100LL
SS $3.59 
 Updated 21-Nov-2017
 
   1 read write
SS=Self service
Update Fuel Prices
 

Would you like to see your business listed on this page?

 If your business provides an interesting product or service to pilots, flight crews, aircraft, or users of the Jones Field Airport, you should consider listing it here.  To start the listing process, click on the button below
 
Add a business
 

Other Pages about Jones Field Airport

Update a link
 
Copyright © AirNav, LLC. All rights reserved. Privacy Policy  Contact